sensor_id;sensor_type;location;lat;lon;timestamp;pressure;altitude;pressure_sealevel;temperature;humidity
61318;BME280;47201;40.428;-8.436;2023-04-29T00:00:43;100794.28;;;17.21;100.00
61318;BME280;47201;40.428;-8.436;2023-04-29T00:03:06;100792.66;;;17.17;100.00
61318;BME280;47201;40.428;-8.436;2023-04-29T00:05:07;100795.44;;;17.12;100.00
61318;BME280;47201;40.428;-8.436;2023-04-29T00:07:08;100793.75;;;17.10;100.00
61318;BME280;47201;40.428;-8.436;2023-04-29T00:09:08;100790.38;;;17.05;100.00
61318;BME280;47201;40.428;-8.436;2023-04-29T00:11:09;100790.44;;;17.02;100.00
61318;BME280;47201;40.428;-8.436;2023-04-29T00:13:10;100789.59;;;17.01;100.00
61318;BME280;47201;40.428;-8.436;2023-04-29T00:15:12;100790.63;;;16.95;100.00
61318;BME280;47201;40.428;-8.436;2023-04-29T00:17:13;100791.56;;;16.93;100.00
61318;BME280;47201;40.428;-8.436;2023-04-29T00:19:35;100796.03;;;16.88;100.00
61318;BME280;47201;40.428;-8.436;2023-04-29T00:21:36;100788.16;;;16.86;100.00
61318;BME280;47201;40.428;-8.436;2023-04-29T00:23:55;100784.69;;;16.84;100.00
61318;BME280;47201;40.428;-8.436;2023-04-29T00:25:55;100778.56;;;16.84;100.00
61318;BME280;47201;40.428;-8.436;2023-04-29T00:28:18;100783.78;;;16.85;100.00
61318;BME280;47201;40.428;-8.436;2023-04-29T00:30:37;100777.66;;;16.85;100.00
61318;BME280;47201;40.428;-8.436;2023-04-29T00:32:37;100783.78;;;16.85;100.00
61318;BME280;47201;40.428;-8.436;2023-04-29T00:34:38;100785.59;;;16.85;100.00
61318;BME280;47201;40.428;-8.436;2023-04-29T00:36:58;100775.16;;;16.80;100.00
61318;BME280;47201;40.428;-8.436;2023-04-29T00:38:59;100780.47;;;16.78;100.00
61318;BME280;47201;40.428;-8.436;2023-04-29T00:40:59;100782.28;;;16.76;100.00
61318;BME280;47201;40.428;-8.436;2023-04-29T00:43:00;100787.59;;;16.75;100.00
61318;BME280;47201;40.428;-8.436;2023-04-29T00:45:00;100784.13;;;16.73;100.00
61318;BME280;47201;40.428;-8.436;2023-04-29T00:47:04;100775.38;;;16.71;100.00
61318;BME280;47201;40.428;-8.436;2023-04-29T00:49:05;100777.16;;;16.70;100.00
61318;BME280;47201;40.428;-8.436;2023-04-29T00:51:07;100764.91;;;16.68;100.00
61318;BME280;47201;40.428;-8.436;2023-04-29T00:53:09;100771.25;;;16.60;100.00
61318;BME280;47201;40.428;-8.436;2023-04-29T00:55:31;100771.25;;;16.60;100.00
61318;BME280;47201;40.428;-8.436;2023-04-29T00:57:32;100766.94;;;16.56;100.00
61318;BME280;47201;40.428;-8.436;2023-04-29T00:59:33;100751.13;;;16.56;100.00
61318;BME280;47201;40.428;-8.436;2023-04-29T01:01:35;100752.13;;;16.52;100.00
61318;BME280;47201;40.428;-8.436;2023-04-29T01:03:35;100752.91;;;16.54;100.00
61318;BME280;47201;40.428;-8.436;2023-04-29T01:05:36;100752.13;;;16.52;100.00
61318;BME280;47201;40.428;-8.436;2023-04-29T01:07:41;100753.06;;;16.48;100.00
61318;BME280;47201;40.428;-8.436;2023-04-29T01:11:54;100750.56;;;16.43;100.00
61318;BME280;47201;40.428;-8.436;2023-04-29T01:13:58;100754.94;;;16.44;100.00
61318;BME280;47201;40.428;-8.436;2023-04-29T01:16:01;100756.63;;;16.47;100.00
61318;BME280;47201;40.428;-8.436;2023-04-29T01:20:08;100763.47;;;16.56;100.00
61318;BME280;47201;40.428;-8.436;2023-04-29T01:22:08;100767.78;;;16.58;100.00
61318;BME280;47201;40.428;-8.436;2023-04-29T01:24:28;100762.47;;;16.60;100.00
61318;BME280;47201;40.428;-8.436;2023-04-29T01:26:28;100762.34;;;16.64;100.00
61318;BME280;47201;40.428;-8.436;2023-04-29T01:30:57;100760.44;;;16.70;100.00
61318;BME280;47201;40.428;-8.436;2023-04-29T01:37:51;100752.34;;;16.76;100.00
61318;BME280;47201;40.428;-8.436;2023-04-29T01:42:31;100755.00;;;16.76;100.00
61318;BME280;47201;40.428;-8.436;2023-04-29T01:44:38;100752.28;;;16.79;100.00
61318;BME280;47201;40.428;-8.436;2023-04-29T01:46:40;100757.63;;;16.76;100.00
61318;BME280;47201;40.428;-8.436;2023-04-29T01:48:42;100751.50;;;16.75;100.00
61318;BME280;47201;40.428;-8.436;2023-04-29T01:50:43;100757.81;;;16.70;100.00
61318;BME280;47201;40.428;-8.436;2023-04-29T01:52:46;100755.16;;;16.70;100.00
61318;BME280;47201;40.428;-8.436;2023-04-29T01:54:46;100759.63;;;16.68;100.00
61318;BME280;47201;40.428;-8.436;2023-04-29T01:56:47;100762.28;;;16.66;100.00
61318;BME280;47201;40.428;-8.436;2023-04-29T01:58:56;100765.81;;;16.67;100.00
61318;BME280;47201;40.428;-8.436;2023-04-29T02:01:25;100764.03;;;16.67;100.00
61318;BME280;47201;40.428;-8.436;2023-04-29T02:03:26;100770.16;;;16.69;100.00
61318;BME280;47201;40.428;-8.436;2023-04-29T02:05:46;100779.81;;;16.70;100.00
61318;BME280;47201;40.428;-8.436;2023-04-29T02:07:47;100769.25;;;16.70;100.00
61318;BME280;47201;40.428;-8.436;2023-04-29T02:09:48;100767.41;;;16.72;100.00
61318;BME280;47201;40.428;-8.436;2023-04-29T02:11:49;100770.09;;;16.71;100.00
61318;BME280;47201;40.428;-8.436;2023-04-29T02:13:49;100762.28;;;16.68;100.00
61318;BME280;47201;40.428;-8.436;2023-04-29T02:15:56;100766.72;;;16.65;100.00
61318;BME280;47201;40.428;-8.436;2023-04-29T02:17:57;100764.91;;;16.68;100.00
61318;BME280;47201;40.428;-8.436;2023-04-29T02:19:58;100779.88;;;16.67;100.00
61318;BME280;47201;40.428;-8.436;2023-04-29T02:21:58;100779.06;;;16.63;100.00
61318;BME280;47201;40.428;-8.436;2023-04-29T02:23:59;100790.63;;;16.59;100.00
61318;BME280;47201;40.428;-8.436;2023-04-29T02:26:00;100781.94;;;16.56;100.00
61318;BME280;47201;40.428;-8.436;2023-04-29T02:28:01;100776.66;;;16.56;100.00
61318;BME280;47201;40.428;-8.436;2023-04-29T02:30:01;100777.56;;;16.55;100.00
61318;BME280;47201;40.428;-8.436;2023-04-29T02:32:04;100783.66;;;16.57;100.00
61318;BME280;47201;40.428;-8.436;2023-04-29T02:34:05;100791.53;;;16.58;100.00
61318;BME280;47201;40.428;-8.436;2023-04-29T02:36:07;100796.03;;;16.55;100.00
61318;BME280;47201;40.428;-8.436;2023-04-29T02:38:26;100791.72;;;16.50;100.00
61318;BME280;47201;40.428;-8.436;2023-04-29T02:40:45;100793.50;;;16.50;100.00
61318;BME280;47201;40.428;-8.436;2023-04-29T02:43:04;100794.34;;;16.52;100.00
61318;BME280;47201;40.428;-8.436;2023-04-29T02:45:24;100793.44;;;16.52;100.00
61318;BME280;47201;40.428;-8.436;2023-04-29T02:47:25;100793.50;;;16.50;100.00
61318;BME280;47201;40.428;-8.436;2023-04-29T02:49:25;100797.88;;;16.49;100.00
61318;BME280;47201;40.428;-8.436;2023-04-29T02:51:45;100793.41;;;16.53;100.00
61318;BME280;47201;40.428;-8.436;2023-04-29T02:53:46;100788.13;;;16.53;100.00
61318;BME280;47201;40.428;-8.436;2023-04-29T02:55:46;100788.06;;;16.56;100.00
61318;BME280;47201;40.428;-8.436;2023-04-29T02:57:47;100785.38;;;16.58;100.00
61318;BME280;47201;40.428;-8.436;2023-04-29T03:00:06;100784.53;;;16.57;100.00
61318;BME280;47201;40.428;-8.436;2023-04-29T03:02:08;100786.25;;;16.58;100.00
61318;BME280;47201;40.428;-8.436;2023-04-29T03:04:09;100786.22;;;16.60;100.00
61318;BME280;47201;40.428;-8.436;2023-04-29T03:06:28;100786.16;;;16.61;100.00
61318;BME280;47201;40.428;-8.436;2023-04-29T03:08:29;100795.88;;;16.61;100.00
61318;BME280;47201;40.428;-8.436;2023-04-29T03:10:30;100808.09;;;16.63;100.00
61318;BME280;47201;40.428;-8.436;2023-04-29T03:12:30;100808.22;;;16.59;100.00
61318;BME280;47201;40.428;-8.436;2023-04-29T03:14:31;100806.47;;;16.59;100.00
61318;BME280;47201;40.428;-8.436;2023-04-29T03:16:50;100802.09;;;16.58;100.00
61318;BME280;47201;40.428;-8.436;2023-04-29T03:18:51;100795.97;;;16.56;100.00
61318;BME280;47201;40.428;-8.436;2023-04-29T03:20:51;100802.13;;;16.57;100.00
61318;BME280;47201;40.428;-8.436;2023-04-29T03:23:11;100798.63;;;16.56;100.00
61318;BME280;47201;40.428;-8.436;2023-04-29T03:25:30;100803.00;;;16.57;100.00
61318;BME280;47201;40.428;-8.436;2023-04-29T03:27:48;100805.63;;;16.57;100.00
61318;BME280;47201;40.428;-8.436;2023-04-29T03:29:49;100810.06;;;16.55;100.00
61318;BME280;47201;40.428;-8.436;2023-04-29T03:31:50;100808.34;;;16.54;100.00
61318;BME280;47201;40.428;-8.436;2023-04-29T03:33:51;100813.66;;;16.53;100.00
61318;BME280;47201;40.428;-8.436;2023-04-29T03:35:53;100822.38;;;16.56;100.00
61318;BME280;47201;40.428;-8.436;2023-04-29T03:37:54;100813.59;;;16.56;100.00
61318;BME280;47201;40.428;-8.436;2023-04-29T03:39:58;100814.41;;;16.58;100.00
61318;BME280;47201;40.428;-8.436;2023-04-29T03:42:17;100812.81;;;16.50;100.00
61318;BME280;47201;40.428;-8.436;2023-04-29T03:44:18;100815.44;;;16.52;100.00
61318;BME280;47201;40.428;-8.436;2023-04-29T03:46:19;100812.81;;;16.52;100.00
61318;BME280;47201;40.428;-8.436;2023-04-29T03:48:19;100811.97;;;16.50;100.00
61318;BME280;47201;40.428;-8.436;2023-04-29T03:50:21;100810.19;;;16.50;100.00
61318;BME280;47201;40.428;-8.436;2023-04-29T03:52:22;100816.34;;;16.51;100.00
61318;BME280;47201;40.428;-8.436;2023-04-29T03:54:25;100815.41;;;16.54;100.00
61318;BME280;47201;40.428;-8.436;2023-04-29T03:56:26;100819.78;;;16.53;100.00
61318;BME280;47201;40.428;-8.436;2023-04-29T03:58:27;100823.31;;;16.54;100.00
61318;BME280;47201;40.428;-8.436;2023-04-29T04:00:29;100824.16;;;16.56;100.00
61318;BME280;47201;40.428;-8.436;2023-04-29T04:02:31;100832.91;;;16.56;100.00
61318;BME280;47201;40.428;-8.436;2023-04-29T04:04:35;100832.84;;;16.59;100.00
61318;BME280;47201;40.428;-8.436;2023-04-29T04:06:35;100823.19;;;16.58;100.00
61318;BME280;47201;40.428;-8.436;2023-04-29T04:08:36;100830.22;;;16.59;100.00
61318;BME280;47201;40.428;-8.436;2023-04-29T04:10:55;100818.78;;;16.59;100.00
61318;BME280;47201;40.428;-8.436;2023-04-29T04:13:10;100824.03;;;16.60;100.00
61318;BME280;47201;40.428;-8.436;2023-04-29T04:15:29;100820.56;;;16.58;100.00
61318;BME280;47201;40.428;-8.436;2023-04-29T04:17:31;100813.59;;;16.56;100.00
61318;BME280;47201;40.428;-8.436;2023-04-29T04:19:35;100818.94;;;16.53;100.00
61318;BME280;47201;40.428;-8.436;2023-04-29T04:21:35;100816.34;;;16.51;100.00
61318;BME280;47201;40.428;-8.436;2023-04-29T04:23:41;100819.78;;;16.53;100.00
61318;BME280;47201;40.428;-8.436;2023-04-29T04:25:48;100826.00;;;16.50;100.00
61318;BME280;47201;40.428;-8.436;2023-04-29T04:28:07;100830.66;;;16.41;100.00
61318;BME280;47201;40.428;-8.436;2023-04-29T04:30:26;100837.78;;;16.37;100.00
61318;BME280;47201;40.428;-8.436;2023-04-29T04:32:28;100836.13;;;16.31;100.00
61318;BME280;47201;40.428;-8.436;2023-04-29T04:34:29;100839.66;;;16.32;100.00
61318;BME280;47201;40.428;-8.436;2023-04-29T04:36:33;100844.06;;;16.31;100.00
61318;BME280;47201;40.428;-8.436;2023-04-29T04:38:34;100844.09;;;16.30;100.00
61318;BME280;47201;40.428;-8.436;2023-04-29T04:40:41;100844.03;;;16.33;100.00
61318;BME280;47201;40.428;-8.436;2023-04-29T04:42:55;100842.22;;;16.35;100.00
61318;BME280;47201;40.428;-8.436;2023-04-29T04:44:56;100851.97;;;16.31;100.00
61318;BME280;47201;40.428;-8.436;2023-04-29T04:47:08;100845.00;;;16.29;100.00
61318;BME280;47201;40.428;-8.436;2023-04-29T04:49:23;100844.03;;;16.33;100.00
61318;BME280;47201;40.428;-8.436;2023-04-29T04:51:26;100845.84;;;16.31;100.00
61318;BME280;47201;40.428;-8.436;2023-04-29T04:53:28;100846.69;;;16.31;100.00
61318;BME280;47201;40.428;-8.436;2023-04-29T04:55:36;100844.00;;;16.34;100.00
61318;BME280;47201;40.428;-8.436;2023-04-29T04:57:36;100855.44;;;16.33;100.00
61318;BME280;47201;40.428;-8.436;2023-04-29T04:59:56;100861.47;;;16.39;100.00
61318;BME280;47201;40.428;-8.436;2023-04-29T05:01:57;100865.06;;;16.36;100.00
61318;BME280;47201;40.428;-8.436;2023-04-29T05:04:16;100873.00;;;16.34;100.00
61318;BME280;47201;40.428;-8.436;2023-04-29T05:06:35;100868.63;;;16.33;100.00
61318;BME280;47201;40.428;-8.436;2023-04-29T05:08:35;100858.97;;;16.32;100.00
61318;BME280;47201;40.428;-8.436;2023-04-29T05:10:38;100856.34;;;16.32;100.00
61318;BME280;47201;40.428;-8.436;2023-04-29T05:12:57;100873.06;;;16.31;100.00
61318;BME280;47201;40.428;-8.436;2023-04-29T05:14:57;100873.00;;;16.34;100.00
61318;BME280;47201;40.428;-8.436;2023-04-29T05:16:59;100876.50;;;16.35;100.00
61318;BME280;47201;40.428;-8.436;2023-04-29T05:19:01;100865.13;;;16.33;100.00
61318;BME280;47201;40.428;-8.436;2023-04-29T05:21:05;100873.00;;;16.34;100.00
61318;BME280;47201;40.428;-8.436;2023-04-29T05:23:24;100869.44;;;16.37;100.00
61318;BME280;47201;40.428;-8.436;2023-04-29T05:25:43;100875.66;;;16.34;100.00
61318;BME280;47201;40.428;-8.436;2023-04-29T05:27:44;100874.66;;;16.39;100.00
61318;BME280;47201;40.428;-8.436;2023-04-29T05:29:51;100880.03;;;16.36;100.00
61318;BME280;47201;40.428;-8.436;2023-04-29T05:31:51;100879.22;;;16.32;100.00
61318;BME280;47201;40.428;-8.436;2023-04-29T05:33:52;100883.59;;;16.33;100.00
61318;BME280;47201;40.428;-8.436;2023-04-29T05:35:52;100888.91;;;16.31;100.00
61318;BME280;47201;40.428;-8.436;2023-04-29T05:37:53;100902.13;;;16.30;100.00
61318;BME280;47201;40.428;-8.436;2023-04-29T05:40:03;100897.84;;;16.26;100.00
61318;BME280;47201;40.428;-8.436;2023-04-29T05:42:04;100899.59;;;16.25;100.00
61318;BME280;47201;40.428;-8.436;2023-04-29T05:44:17;100898.78;;;16.23;100.00
61318;BME280;47201;40.428;-8.436;2023-04-29T05:46:19;100899.69;;;16.22;100.00
61318;BME280;47201;40.428;-8.436;2023-04-29T05:48:22;100898.78;;;16.23;100.00
61318;BME280;47201;40.428;-8.436;2023-04-29T05:50:24;100897.00;;;16.24;100.00
61318;BME280;47201;40.428;-8.436;2023-04-29T05:52:25;100898.72;;;16.25;100.00
61318;BME280;47201;40.428;-8.436;2023-04-29T05:54:25;100903.91;;;16.29;100.00
61318;BME280;47201;40.428;-8.436;2023-04-29T05:56:26;100909.94;;;16.34;100.00
61318;BME280;47201;40.428;-8.436;2023-04-29T05:58:28;100912.53;;;16.38;100.00
61318;BME280;47201;40.428;-8.436;2023-04-29T06:00:47;100916.03;;;16.38;100.00
61318;BME280;47201;40.428;-8.436;2023-04-29T06:02:54;100916.84;;;16.40;100.00
61318;BME280;47201;40.428;-8.436;2023-04-29T06:04:55;100920.34;;;16.41;100.00
61318;BME280;47201;40.428;-8.436;2023-04-29T06:07:13;100927.31;;;16.45;100.00
61318;BME280;47201;40.428;-8.436;2023-04-29T06:09:22;100925.63;;;16.41;100.00
61318;BME280;47201;40.428;-8.436;2023-04-29T06:11:25;100931.78;;;16.41;100.00
61318;BME280;47201;40.428;-8.436;2023-04-29T06:13:26;100929.88;;;16.48;100.00
61318;BME280;47201;40.428;-8.436;2023-04-29T06:15:27;100934.19;;;16.52;100.00
61318;BME280;47201;40.428;-8.436;2023-04-29T06:17:28;100945.50;;;16.57;100.00
61318;BME280;47201;40.428;-8.436;2023-04-29T06:19:29;100933.06;;;16.62;100.00
61318;BME280;47201;40.428;-8.436;2023-04-29T06:21:35;100937.53;;;16.60;100.00
61318;BME280;47201;40.428;-8.436;2023-04-29T06:23:36;100943.59;;;16.64;100.00
61318;BME280;47201;40.428;-8.436;2023-04-29T06:25:55;100939.13;;;16.68;100.00
61318;BME280;47201;40.428;-8.436;2023-04-29T06:27:56;100932.09;;;16.67;100.00
61318;BME280;47201;40.428;-8.436;2023-04-29T06:30:00;100936.38;;;16.71;100.00
61318;BME280;47201;40.428;-8.436;2023-04-29T06:32:01;100938.09;;;16.73;100.00
61318;BME280;47201;40.428;-8.436;2023-04-29T06:34:02;100940.63;;;16.78;100.00
61318;BME280;47201;40.428;-8.436;2023-04-29T06:36:03;100936.34;;;16.72;100.00
61318;BME280;47201;40.428;-8.436;2023-04-29T06:38:26;100943.41;;;16.72;100.00
61318;BME280;47201;40.428;-8.436;2023-04-29T06:40:41;100938.13;;;16.72;100.00
61318;BME280;47201;40.428;-8.436;2023-04-29T06:43:00;100943.31;;;16.76;100.00
61318;BME280;47201;40.428;-8.436;2023-04-29T06:45:07;100943.19;;;16.81;100.00
61318;BME280;47201;40.428;-8.436;2023-04-29T06:47:19;100951.13;;;16.79;100.00
61318;BME280;47201;40.428;-8.436;2023-04-29T06:49:39;100955.41;;;16.85;100.00
61318;BME280;47201;40.428;-8.436;2023-04-29T06:51:58;100960.63;;;16.88;100.00
61318;BME280;47201;40.428;-8.436;2023-04-29T06:54:00;100948.28;;;16.89;100.00
61318;BME280;47201;40.428;-8.436;2023-04-29T06:56:19;100942.88;;;16.95;100.00
61318;BME280;47201;40.428;-8.436;2023-04-29T06:58:38;100946.31;;;16.99;100.00
61318;BME280;47201;40.428;-8.436;2023-04-29T07:00:48;100945.41;;;17.00;100.00
61318;BME280;47201;40.428;-8.436;2023-04-29T07:02:49;100943.53;;;17.05;100.00
61318;BME280;47201;40.428;-8.436;2023-04-29T07:05:08;100940.19;;;16.98;100.00
61318;BME280;47201;40.428;-8.436;2023-04-29T07:07:09;100944.47;;;17.02;100.00
61318;BME280;47201;40.428;-8.436;2023-04-29T07:09:09;100951.38;;;17.08;100.00
61318;BME280;47201;40.428;-8.436;2023-04-29T07:11:11;100945.19;;;17.09;100.00
61318;BME280;47201;40.428;-8.436;2023-04-29T07:13:30;100952.00;;;17.18;100.00
61318;BME280;47201;40.428;-8.436;2023-04-29T07:15:34;100950.09;;;17.24;100.00
61318;BME280;47201;40.428;-8.436;2023-04-29T07:17:36;100951.72;;;17.30;100.00
61318;BME280;47201;40.428;-8.436;2023-04-29T07:19:37;100944.59;;;17.34;100.00
61318;BME280;47201;40.428;-8.436;2023-04-29T07:21:38;100939.97;;;17.42;100.00
61318;BME280;47201;40.428;-8.436;2023-04-29T07:23:58;100940.53;;;17.53;100.00
61318;BME280;47201;40.428;-8.436;2023-04-29T07:26:20;100943.84;;;17.62;100.00
61318;BME280;47201;40.428;-8.436;2023-04-29T07:28:21;100940.03;;;17.72;100.00
61318;BME280;47201;40.428;-8.436;2023-04-29T07:30:40;100943.34;;;18.12;100.00
61318;BME280;47201;40.428;-8.436;2023-04-29T07:32:59;100941.50;;;18.15;100.00
61318;BME280;47201;40.428;-8.436;2023-04-29T07:35:18;100951.16;;;18.46;100.00
61318;BME280;47201;40.428;-8.436;2023-04-29T07:37:38;100954.06;;;18.65;100.00
61318;BME280;47201;40.428;-8.436;2023-04-29T07:39:39;100957.94;;;18.83;100.00
61318;BME280;47201;40.428;-8.436;2023-04-29T07:41:42;100953.19;;;18.95;100.00
61318;BME280;47201;40.428;-8.436;2023-04-29T07:43:43;100956.00;;;19.17;100.00
61318;BME280;47201;40.428;-8.436;2023-04-29T07:45:43;100960.34;;;19.45;100.00
61318;BME280;47201;40.428;-8.436;2023-04-29T07:47:44;100961.13;;;19.74;100.00
61318;BME280;47201;40.428;-8.436;2023-04-29T07:49:45;100962.97;;;20.21;100.00
61318;BME280;47201;40.428;-8.436;2023-04-29T07:52:04;100972.63;;;20.69;100.00
61318;BME280;47201;40.428;-8.436;2023-04-29T07:54:23;100968.44;;;20.86;100.00
61318;BME280;47201;40.428;-8.436;2023-04-29T07:56:24;100963.59;;;21.18;98.58
61318;BME280;47201;40.428;-8.436;2023-04-29T07:58:26;100960.63;;;21.46;96.43
61318;BME280;47201;40.428;-8.436;2023-04-29T08:00:30;100969.72;;;21.63;96.33
61318;BME280;47201;40.428;-8.436;2023-04-29T08:02:30;100979.53;;;21.81;94.66
61318;BME280;47201;40.428;-8.436;2023-04-29T08:04:32;100981.25;;;21.82;91.49
61318;BME280;47201;40.428;-8.436;2023-04-29T08:06:36;100980.38;;;22.02;91.29
61318;BME280;47201;40.428;-8.436;2023-04-29T08:08:38;100975.06;;;22.22;89.76
61318;BME280;47201;40.428;-8.436;2023-04-29T08:10:38;100982.44;;;22.55;85.83
61318;BME280;47201;40.428;-8.436;2023-04-29T08:13:01;100982.34;;;23.12;82.74
61318;BME280;47201;40.428;-8.436;2023-04-29T08:15:20;100990.88;;;23.89;77.86
61318;BME280;47201;40.428;-8.436;2023-04-29T08:17:21;100985.72;;;24.69;73.37
61318;BME280;47201;40.428;-8.436;2023-04-29T08:19:21;100980.41;;;25.46;69.04
61318;BME280;47201;40.428;-8.436;2023-04-29T08:21:23;100990.50;;;26.58;65.02
61318;BME280;47201;40.428;-8.436;2023-04-29T08:23:42;100991.19;;;27.95;59.28
61318;BME280;47201;40.428;-8.436;2023-04-29T08:25:43;101001.72;;;28.99;55.12
61318;BME280;47201;40.428;-8.436;2023-04-29T08:27:43;100998.78;;;29.62;51.58
61318;BME280;47201;40.428;-8.436;2023-04-29T08:30:03;100988.41;;;29.80;51.02
61318;BME280;47201;40.428;-8.436;2023-04-29T08:32:05;100997.16;;;29.48;52.62
61318;BME280;47201;40.428;-8.436;2023-04-29T08:34:05;100990.19;;;29.21;54.00
61318;BME280;47201;40.428;-8.436;2023-04-29T08:36:06;100993.00;;;28.08;56.63
61318;BME280;47201;40.428;-8.436;2023-04-29T08:38:08;100994.81;;;27.55;58.70
61318;BME280;47201;40.428;-8.436;2023-04-29T08:40:09;101004.00;;;26.98;60.92
61318;BME280;47201;40.428;-8.436;2023-04-29T08:42:10;101006.16;;;26.22;63.99
61318;BME280;47201;40.428;-8.436;2023-04-29T08:44:10;101002.53;;;25.78;66.80
61318;BME280;47201;40.428;-8.436;2023-04-29T08:46:11;101004.38;;;25.17;69.54
61318;BME280;47201;40.428;-8.436;2023-04-29T08:48:12;101013.16;;;24.23;73.40
61318;BME280;47201;40.428;-8.436;2023-04-29T08:50:13;101007.47;;;23.60;75.61
61318;BME280;47201;40.428;-8.436;2023-04-29T08:52:35;101015.00;;;23.17;78.45
61318;BME280;47201;40.428;-8.436;2023-04-29T08:54:37;101006.56;;;22.52;82.17
61318;BME280;47201;40.428;-8.436;2023-04-29T08:56:38;101009.72;;;22.20;83.96
61318;BME280;47201;40.428;-8.436;2023-04-29T08:58:38;101013.13;;;22.24;83.87
61318;BME280;47201;40.428;-8.436;2023-04-29T09:00:59;101007.13;;;21.99;85.35
61318;BME280;47201;40.428;-8.436;2023-04-29T09:03:01;101005.06;;;21.65;87.51
61318;BME280;47201;40.428;-8.436;2023-04-29T09:05:09;101012.91;;;21.25;91.46
61318;BME280;47201;40.428;-8.436;2023-04-29T09:07:31;101016.16;;;20.89;93.98
61318;BME280;47201;40.428;-8.436;2023-04-29T09:09:51;101017.06;;;20.64;95.45
61318;BME280;47201;40.428;-8.436;2023-04-29T09:12:11;101009.47;;;20.79;95.48
61318;BME280;47201;40.428;-8.436;2023-04-29T09:14:30;101011.50;;;21.16;93.28
61318;BME280;47201;40.428;-8.436;2023-04-29T09:16:52;101009.66;;;21.61;90.57
61318;BME280;47201;40.428;-8.436;2023-04-29T09:19:24;101011.38;;;21.83;89.37
61318;BME280;47201;40.428;-8.436;2023-04-29T09:21:28;101006.78;;;21.86;87.91
61318;BME280;47201;40.428;-8.436;2023-04-29T09:23:36;101011.38;;;22.03;87.16
61318;BME280;47201;40.428;-8.436;2023-04-29T09:25:57;101016.28;;;22.13;87.69
61318;BME280;47201;40.428;-8.436;2023-04-29T09:27:57;101009.84;;;22.38;86.41
61318;BME280;47201;40.428;-8.436;2023-04-29T09:30:01;101015.69;;;22.06;87.21
61318;BME280;47201;40.428;-8.436;2023-04-29T09:32:20;101024.69;;;22.03;86.99
61318;BME280;47201;40.428;-8.436;2023-04-29T09:34:31;101021.06;;;22.05;87.85
61318;BME280;47201;40.428;-8.436;2023-04-29T09:38:36;101014.81;;;22.26;86.74
61318;BME280;47201;40.428;-8.436;2023-04-29T09:41:11;101021.63;;;22.32;85.98
61318;BME280;47201;40.428;-8.436;2023-04-29T09:43:17;101022.97;;;22.02;87.56
61318;BME280;47201;40.428;-8.436;2023-04-29T09:45:33;101023.00;;;22.01;87.46
61318;BME280;47201;40.428;-8.436;2023-04-29T09:47:34;101015.09;;;21.99;88.06
61318;BME280;47201;40.428;-8.436;2023-04-29T09:49:54;101025.38;;;21.45;90.72
61318;BME280;47201;40.428;-8.436;2023-04-29T09:52:28;101022.91;;;21.63;89.86
61318;BME280;47201;40.428;-8.436;2023-04-29T09:54:57;101032.47;;;21.87;88.68
61318;BME280;47201;40.428;-8.436;2023-04-29T09:57:04;101030.50;;;22.12;86.66
61318;BME280;47201;40.428;-8.436;2023-04-29T09:59:07;101039.97;;;22.40;85.15
61318;BME280;47201;40.428;-8.436;2023-04-29T10:01:08;101042.47;;;22.43;83.91
61318;BME280;47201;40.428;-8.436;2023-04-29T10:03:30;101040.19;;;22.54;83.16
61318;BME280;47201;40.428;-8.436;2023-04-29T10:05:50;101044.84;;;22.87;81.53
61318;BME280;47201;40.428;-8.436;2023-04-29T10:07:51;101034.38;;;23.02;80.52
61318;BME280;47201;40.428;-8.436;2023-04-29T10:09:52;101027.31;;;23.20;79.79
61318;BME280;47201;40.428;-8.436;2023-04-29T10:11:53;101035.25;;;23.39;79.04
61318;BME280;47201;40.428;-8.436;2023-04-29T10:13:54;101027.28;;;23.56;77.10
61318;BME280;47201;40.428;-8.436;2023-04-29T10:16:26;101029.63;;;23.45;77.13
61318;BME280;47201;40.428;-8.436;2023-04-29T10:18:38;101034.81;;;23.66;76.22
61318;BME280;47201;40.428;-8.436;2023-04-29T10:20:40;101020.44;;;23.86;75.45
61318;BME280;47201;40.428;-8.436;2023-04-29T10:23:02;101027.03;;;24.30;74.20
61318;BME280;47201;40.428;-8.436;2023-04-29T10:25:04;101029.34;;;24.69;72.40
61318;BME280;47201;40.428;-8.436;2023-04-29T10:27:08;101027.88;;;24.96;68.98
61318;BME280;47201;40.428;-8.436;2023-04-29T10:29:12;101020.72;;;24.80;70.19
61318;BME280;47201;40.428;-8.436;2023-04-29T10:31:32;101015.84;;;25.19;69.64
61318;BME280;47201;40.428;-8.436;2023-04-29T10:33:34;101023.06;;;25.33;67.67
61318;BME280;47201;40.428;-8.436;2023-04-29T10:35:35;101029.16;;;25.51;67.50
61318;BME280;47201;40.428;-8.436;2023-04-29T10:37:55;101033.31;;;25.71;66.54
61318;BME280;47201;40.428;-8.436;2023-04-29T10:42:00;101029.38;;;26.36;64.08
61318;BME280;47201;40.428;-8.436;2023-04-29T10:44:04;101033.75;;;26.52;63.63
61318;BME280;47201;40.428;-8.436;2023-04-29T10:46:24;101029.06;;;26.84;62.37
61318;BME280;47201;40.428;-8.436;2023-04-29T10:48:27;101033.09;;;27.04;60.75
61318;BME280;47201;40.428;-8.436;2023-04-29T10:52:50;101043.50;;;28.91;54.61
61318;BME280;47201;40.428;-8.436;2023-04-29T10:55:03;101051.16;;;28.47;55.34
61318;BME280;47201;40.428;-8.436;2023-04-29T10:57:03;101056.69;;;27.54;59.12
61318;BME280;47201;40.428;-8.436;2023-04-29T10:59:04;101046.00;;;26.85;62.08
61318;BME280;47201;40.428;-8.436;2023-04-29T11:01:31;101056.63;;;26.72;62.40
61318;BME280;47201;40.428;-8.436;2023-04-29T11:06:10;101052.81;;;26.18;64.54
61318;BME280;47201;40.428;-8.436;2023-04-29T11:08:11;101043.25;;;26.43;62.61
61318;BME280;47201;40.428;-8.436;2023-04-29T11:10:35;101051.78;;;28.51;57.46
61318;BME280;47201;40.428;-8.436;2023-04-29T11:15:13;101048.03;;;33.67;43.32